createdAt,value
2016-11-25T12:43:39.699Z,22.59
2016-11-25T12:44:49.507Z,22.69
2016-11-25T12:45:59.610Z,22.69
2016-11-25T12:47:09.284Z,22.74
2016-11-25T12:48:18.528Z,22.77
2016-11-25T12:49:28.155Z,22.77
2016-11-25T12:50:37.322Z,22.89
2016-11-25T12:51:46.401Z,23.08
2016-11-25T12:52:55.558Z,23.15
2016-11-25T12:54:04.794Z,22.99
2016-11-25T12:55:13.979Z,23.01
2016-11-25T12:56:23.355Z,23.01
2016-11-25T12:57:32.469Z,23.27
2016-11-25T12:58:41.704Z,23.11
2016-11-25T12:59:50.907Z,22.99
2016-11-25T13:01:00.300Z,22.83
2016-11-25T13:02:10.047Z,22.77
2016-11-25T13:03:19.214Z,22.64
2016-11-25T13:04:28.313Z,22.62
2016-11-25T13:05:37.736Z,22.62
2016-11-25T13:06:46.960Z,22.49
2016-11-25T13:07:56.417Z,22.49
2016-11-25T13:09:05.469Z,22.38
2016-11-25T13:10:15.748Z,22.39
2016-11-25T13:11:25.112Z,22.49
2016-11-25T13:12:34.326Z,22.54
2016-11-25T13:13:43.461Z,22.49
2016-11-25T13:14:52.797Z,22.57
2016-11-25T13:16:02.283Z,22.39
2016-11-25T13:17:12.740Z,22.43
2016-11-25T13:18:21.874Z,22.39
2016-11-25T13:19:31.089Z,22.38
2016-11-25T13:20:40.468Z,22.38
2016-11-25T13:21:49.575Z,22.29
2016-11-25T13:22:59.069Z,22.29
2016-11-25T13:24:08.253Z,22.37
2016-11-25T13:25:17.536Z,22.29
2016-11-25T13:26:26.838Z,22.38
2016-11-25T13:27:36.045Z,22.23
2016-11-25T13:28:45.212Z,22.34
2016-11-25T13:29:54.392Z,22.38
2016-11-25T13:31:03.660Z,22.54
2016-11-25T13:32:12.780Z,22.62
2016-11-25T13:33:21.874Z,22.77
2016-11-25T13:34:31.158Z,22.8
2016-11-25T13:35:40.315Z,22.62
2016-11-25T13:36:49.532Z,22.59
2016-11-25T13:37:59.042Z,22.53
2016-11-25T13:39:08.208Z,22.34
2016-11-25T13:40:17.363Z,22.47
2016-11-25T13:41:27.127Z,22.27
2016-11-25T13:42:36.318Z,22.14
2016-11-25T13:43:45.411Z,22.14
2016-11-25T13:44:55.511Z,22.02
2016-11-25T13:46:04.697Z,21.99
2016-11-25T13:47:13.919Z,21.88
2016-11-25T13:48:23.101Z,21.85
2016-11-25T13:49:32.454Z,21.83
2016-11-25T13:50:41.962Z,21.71
2016-11-25T13:51:51.035Z,21.53
2016-11-25T13:53:00.360Z,21.57
2016-11-25T13:54:09.846Z,21.59
2016-11-25T13:55:19.154Z,21.59
2016-11-25T13:56:28.908Z,21.75
2016-11-25T13:57:38.288Z,21.71
2016-11-25T13:58:47.513Z,21.75
2016-11-25T13:59:56.794Z,21.72
2016-11-25T14:01:05.999Z,21.69
2016-11-25T14:02:15.795Z,21.59
2016-11-25T14:03:26.675Z,21.63
2016-11-25T14:04:36.108Z,21.5
